• Join FlightAware (Why Join?)
  • Login
  • US Flag 
06:19AM EDT


 

Airport Tracker/Info


-or-


 

Live Flight TrackerFlight Track Log ✈ SWA2131 ✈ 20-Apr-2013 ✈ KMDW - KPHX

Flight Track Log - Related Links

Times and Time Zones

All times are in EDT time to prevent confusion due to time zone crossing. See the SWA2131 flight status page for this flight to view local times or setup timezone preferences in your user account.

Time Position Orientation Groundspeed Altitude Reporting Facility
EDT Latitude Longitude Course Direction KTS MPH feet Rate Location/Type
04:01PM 41.8000 -87.7833 236° Southwest 161 185 2,100  Level Chicago TRACON
04:02PM 41.7667 -87.8500 236° Southwest 209 241 2,900 960 Climbing Chicago TRACON
04:03PM 41.7667 -87.9167 270° West 210 242 4,000 1,260 Climbing Chicago TRACON
04:03PM 41.7589 -87.9503 253° West 213 245 4,600 1,560 Climbing Chicago Center
04:04PM 41.7536 -88.0442 266° West 239 275 6,300 2,580 Climbing Chicago Center
04:05PM 41.7608 -88.1358 276° West 249 287 10,000 2,820 Climbing Chicago Center
04:06PM 41.7678 -88.2408 275° West 286 329 12,200 2,820 Climbing Chicago Center
04:07PM 41.7733 -88.3575 274° West 317 365 15,800 3,240 Climbing Chicago Center
04:08PM 41.7808 -88.5025 274° West 330 380 18,900 2,700 Climbing Chicago Center
04:09PM 41.7672 -88.6311 262° West 359 413 21,400 2,460 Climbing Chicago Center
04:10PM 41.7383 -88.7617 254° West 368 423 24,000 2,160 Climbing Chicago Center
04:11PM 41.7108 -88.8925 254° West 369 425 25,900 1,740 Climbing Chicago Center
04:12PM 41.6800 -89.0314 253° West 386 444 27,700 1,620 Climbing Chicago Center
04:13PM 41.6497 -89.1722 254° West 396 456 29,300 2,040 Climbing Chicago Center
04:15PM 41.6125 -89.3406 254° West 398 458 31,900 2,100 Climbing Chicago Center
04:16PM 41.5831 -89.4781 254° West 390 449 33,700 1,440 Climbing Chicago Center
04:17PM 41.5542 -89.6097 254° West 386 444 34,900 1,140 Climbing Chicago Center
04:18PM 41.5231 -89.7478 253° West 389 448 36,100 960 Climbing Chicago Center
04:19PM 41.4919 -89.8883 254° West 395 455 36,900 900 Climbing Chicago Center
04:20PM 41.4539 -90.0575 253° West 398 458 38,000 480 Climbing Chicago Center
04:21PM 41.4225 -90.1989 254° West 400 460 38,000  Level Chicago Center
04:22PM 41.3914 -90.3372 253° West 396 456 38,000  Level Chicago Center
04:23PM 41.3592 -90.4747 253° West 393 452 38,000  Level Chicago Center
04:24PM 41.3169 -90.6119 248° West 409 471 38,000  Level Chicago Center
04:25PM 41.2753 -90.7494 248° West 405 466 38,000  Level Chicago Center
04:26PM 41.2358 -90.8842 249° West 396 456 38,000  Level Chicago Center
04:27PM 41.1869 -91.0431 248° West 390 449 38,000  Level Chicago Center
04:28PM 41.1450 -91.1783 248° West 396 456 38,000  Level Chicago Center
04:29PM 41.1050 -91.3103 248° West 389 448 38,000  Level Chicago Center
04:30PM 41.0633 -91.4458 248° West 396 456 38,000  Level Chicago Center
04:31PM 41.0203 -91.5806 247° West 399 459 38,000  Level Chicago Center
04:32PM 40.9717 -91.7353 247° West 399 459 38,000  Level Chicago Center
04:33PM 40.9306 -91.8694 248° West 398 458 38,000  Level Chicago Center
04:34PM 40.8881 -92.0022 247° West 397 457 38,000  Level Chicago Center
04:35PM 40.8456 -92.1356 247° West 397 457 38,000  Level Chicago Center
04:36PM 40.8039 -92.2681 247° West 396 456 38,000  Level Chicago Center
04:37PM 40.7519 -92.4269 247° West 398 458 38,000  Level Chicago Center
04:38PM 40.7100 -92.5594 247° West 397 457 38,000  Level Chicago Center
04:39PM 40.6678 -92.6942 248° West 403 464 38,000  Level Chicago Center
04:40PM 40.6233 -92.8286 247° West 407 468 38,000  Level Chicago Center
04:41PM 40.5781 -92.9647 246° West 404 465 38,000  Level Kansas City Center
04:42PM 40.5256 -93.1222 246° West 404 465 38,000  Level Kansas City Center
04:43PM 40.4822 -93.2558 247° West 403 464 38,000  Level Kansas City Center
04:44PM 40.4403 -93.3892 248° West 401 461 38,000  Level Kansas City Center
04:45PM 40.3947 -93.5200 245° Southwest 399 459 38,000  Level Kansas City Center
04:46PM 40.3500 -93.6525 246° West 400 460 38,000  Level Kansas City Center
04:47PM 40.3072 -93.7853 247° West 399 459 38,000  Level Kansas City Center
04:48PM 40.2536 -93.9450 246° West 401 461 38,000  Level Kansas City Center
04:49PM 40.2069 -94.0753 245° Southwest 401 461 38,000  Level Kansas City Center
04:51PM 40.1628 -94.2028 246° West 402 463 38,000  Level Kansas City Center
04:52PM 40.1114 -94.3506 246° West 402 463 38,000  Level Kansas City Center
04:53PM 40.0672 -94.4783 246° West 404 465 38,000  Level Kansas City Center
04:54PM 40.0150 -94.6275 245° Southwest 405 466 38,000  Level Kansas City Center
04:55PM 39.9714 -94.7564 246° West 407 468 38,000  Level Kansas City Center
04:56PM 39.9189 -94.9044 245° Southwest 405 466 38,000  Level Kansas City Center
04:57PM 39.8744 -95.0333 246° West 407 468 38,000  Level Kansas City Center
04:58PM 39.8225 -95.1819 246° West 407 468 38,000  Level Kansas City Center
04:59PM 39.7764 -95.3069 244° Southwest 404 465 38,000  Level Kansas City Center
05:00PM 39.7256 -95.4525 246° West 399 459 38,000  Level Kansas City Center
05:01PM 39.6808 -95.5764 245° Southwest 399 459 38,000  Level Kansas City Center
05:02PM 39.6289 -95.7219 245° Southwest 400 460 38,000  Level Kansas City Center
05:03PM 39.5828 -95.8464 244° Southwest 403 464 38,000  Level Kansas City Center
05:04PM 39.5303 -95.9928 245° Southwest 402 463 38,000  Level Kansas City Center
05:05PM 39.4842 -96.1175 244° Southwest 403 464 38,000  Level Kansas City Center
05:06PM 39.4392 -96.2378 244° Southwest 406 467 38,000  Level Kansas City Center
05:07PM 39.3811 -96.3967 245° Southwest 408 470 38,000  Level Kansas City Center
05:08PM 39.3367 -96.5172 245° Southwest 407 468 38,000  Level Kansas City Center
05:09PM 39.2825 -96.6619 244° Southwest 403 464 38,000  Level Kansas City Center
05:10PM 39.2350 -96.7861 244° Southwest 403 464 38,000  Level Kansas City Center
05:11PM 39.1822 -96.9300 245° Southwest 399 459 38,000  Level Kansas City Center
05:12PM 39.1339 -97.0528 243° Southwest 402 463 38,000  Level Kansas City Center
05:13PM 39.0836 -97.1969 246° West 397 457 38,000  Level Kansas City Center
05:14PM 39.0361 -97.3197 244° Southwest 399 459 38,000  Level Kansas City Center
05:15PM 38.9903 -97.4431 244° Southwest 399 459 38,000  Level Kansas City Center
05:16PM 38.9347 -97.5867 244° Southwest 401 461 38,000  Level Kansas City Center
05:17PM 38.8872 -97.7094 244° Southwest 402 463 38,000  Level Kansas City Center
05:18PM 38.8294 -97.8606 244° Southwest 406 467 38,000  Level Kansas City Center
05:19PM 38.7847 -97.9714 243° Southwest 410 472 38,000  Level Kansas City Center
05:20PM 38.7347 -98.1006 244° Southwest 408 470 38,000  Level Kansas City Center
05:21PM 38.6747 -98.2544 244° Southwest 406 467 38,000  Level Kansas City Center
05:22PM 38.6250 -98.3817 243° Southwest 403 464 38,000  Level Kansas City Center
05:23PM 38.5753 -98.5083 243° Southwest 402 463 38,000  Level Kansas City Center
05:25PM 38.5247 -98.6356 243° Southwest 402 463 38,000  Level Kansas City Center
05:26PM 38.4739 -98.7625 243° Southwest 404 465 38,000  Level Kansas City Center
05:27PM 38.4233 -98.8889 243° Southwest 403 464 38,000  Level Kansas City Center
05:28PM 38.3622 -99.0406 243° Southwest 402 463 38,000  Level Kansas City Center
05:29PM 38.3114 -99.1661 243° Southwest 400 460 38,000  Level Kansas City Center
05:30PM 38.2600 -99.2914 242° Southwest 400 460 38,000  Level Kansas City Center
05:31PM 38.2092 -99.4167 243° Southwest 400 460 38,000  Level Kansas City Center
05:32PM 38.1572 -99.5458 243° Southwest 399 459 38,000  Level Kansas City Center
05:33PM 38.1028 -99.6894 244° Southwest 403 464 38,000  Level Kansas City Center
05:34PM 38.0689 -99.8203 252° West 405 466 38,000  Level Kansas City Center
05:35PM 38.0264 -99.9714 250° West 408 470 38,000  Level Kansas City Center
05:36PM 37.9894 -100.1014 250° West 409 471 38,000  Level Kansas City Center
05:37PM 37.9525 -100.2311 250° West 409 471 38,000  Level Kansas City Center
05:38PM 37.9103 -100.3811 250° West 407 468 38,000  Level Kansas City Center
05:39PM 37.8731 -100.5092 250° West 407 468 38,000  Level Kansas City Center
05:40PM 37.8297 -100.6603 250° West 409 471 38,000  Level Kansas City Center
05:41PM 37.7922 -100.7883 250° West 410 472 38,000  Level Kansas City Center
05:42PM 37.7531 -100.9183 249° West 409 471 38,000  Level Kansas City Center
05:43PM 37.7142 -101.0514 250° West 405 466 38,000  Level Kansas City Center
05:44PM 37.6683 -101.2067 250° West 404 465 38,000  Level Kansas City Center
05:45PM 37.6308 -101.3336 250° West 405 466 38,000  Level Kansas City Center
05:46PM 37.5872 -101.4792 249° West 400 460 38,000  Level Kansas City Center
05:47PM 37.5503 -101.6056 250° West 400 460 38,000  Level Kansas City Center
05:48PM 37.5058 -101.7508 249° West 400 460 38,000  Level Kansas City Center
05:49PM 37.4692 -101.8772 250° West 398 458 38,000  Level Albuquerque Center
05:50PM 37.4317 -102.0022 249° West 398 458 38,000  Level Albuquerque Center
05:51PM 37.3881 -102.1475 249° West 398 458 38,000  Level Albuquerque Center
05:52PM 37.3483 -102.2775 249° West 400 460 38,000  Level Albuquerque Center
05:53PM 37.3092 -102.4028 249° West 401 461 38,000  Level Albuquerque Center
05:54PM 37.2647 -102.5492 249° West 401 461 38,000  Level Albuquerque Center
05:55PM 37.2256 -102.6744 249° West 402 463 38,000  Level Albuquerque Center
05:56PM 37.1864 -102.7989 248° West 401 461 38,000  Level Albuquerque Center
05:57PM 37.1389 -102.9464 248° West 405 466 38,000  Level Albuquerque Center
05:58PM 37.0997 -103.0717 249° West 403 464 38,000  Level Albuquerque Center
05:59PM 37.0522 -103.2186 248° West 405 466 38,000  Level Albuquerque Center
06:00PM 37.0128 -103.3453 249° West 407 468 38,000  Level Albuquerque Center
06:01PM 36.9722 -103.4722 248° West 408 470 38,000  Level Albuquerque Center
06:02PM 36.9244 -103.6222 248° West 413 475 38,000  Level Albuquerque Center
06:03PM 36.8822 -103.7503 248° West 414 476 38,000  Level Albuquerque Center
06:05PM 36.8347 -103.8983 248° West 410 472 38,000  Level Albuquerque Center
06:06PM 36.7925 -104.0250 247° West 411 473 38,000  Level Albuquerque Center
06:07PM 36.7503 -104.1528 248° West 413 475 38,000  Level Albuquerque Center
06:08PM 36.7022 -104.3006 248° West 412 474 38,000  Level Albuquerque Center
06:09PM 36.6575 -104.4325 247° West 410 472 38,000  Level Albuquerque Center
06:10PM 36.6136 -104.5644 248° West 411 473 38,000  Level Albuquerque Center
06:11PM 36.5700 -104.6975 248° West 412 474 38,000  Level Albuquerque Center
06:12PM 36.5258 -104.8292 247° West 411 473 38,000  Level Albuquerque Center
06:13PM 36.4808 -104.9619 247° West 414 476 38,000  Level Albuquerque Center
06:14PM 36.4342 -105.0972 247° West 420 483 38,000  Level Albuquerque Center
06:15PM 36.3792 -105.2564 247° West 428 493 38,000  Level Albuquerque Center
06:16PM 36.3356 -105.3861 247° West 413 475 38,000  Level Albuquerque Center
06:17PM 36.2917 -105.5167 247° West 408 470 38,000  Level Albuquerque Center
06:18PM 36.2525 -105.6306 247° West 411 473 38,000  Level Albuquerque Center
06:19PM 36.2072 -105.7611 247° West 413 475 38,000  Level Albuquerque Center
06:20PM 36.1525 -105.9178 247° West 414 476 38,000  Level Albuquerque Center
06:21PM 36.1075 -106.0472 247° West 412 474 38,000  Level Albuquerque Center
06:22PM 36.0625 -106.1747 246° West 408 470 38,000  Level Albuquerque Center
06:23PM 36.0178 -106.3047 247° West 410 472 38,000  Level Albuquerque Center
06:24PM 35.9733 -106.4331 247° West 408 470 38,000  Level Albuquerque Center
06:25PM 35.9272 -106.5622 246° West 411 473 38,000  Level Albuquerque Center
06:26PM 35.8739 -106.7100 246° West 413 475 38,000  Level Albuquerque Center
06:27PM 35.8317 -106.8311 247° West 405 466 38,000  Level Albuquerque Center
06:28PM 35.7806 -106.9708 246° West 401 461 38,000  Level Albuquerque Center
06:29PM 35.7386 -107.0894 246° West 396 456 38,000  Level Albuquerque Center
06:30PM 35.6953 -107.2067 246° West 394 453 38,000  Level Albuquerque Center
06:31PM 35.6464 -107.3419 246° West 389 448 38,000  Level Albuquerque Center
06:32PM 35.6044 -107.4553 246° West 384 442 38,000  Level Albuquerque Center
06:33PM 35.5553 -107.5875 245° Southwest 381 438 38,000  Level Albuquerque Center
06:34PM 35.5147 -107.7019 247° West 380 437 38,000  Level Albuquerque Center
06:35PM 35.4722 -107.8164 246° West 383 441 38,000  Level Albuquerque Center
06:36PM 35.4239 -107.9475 246° West 380 437 38,000  Level Albuquerque Center
06:37PM 35.3819 -108.0597 245° Southwest 378 435 38,000  Level Albuquerque Center
06:38PM 35.3328 -108.1925 246° West 379 436 38,000  Level Albuquerque Center
06:39PM 35.2886 -108.3064 245° Southwest 382 440 38,000  Level Albuquerque Center
06:40PM 35.2478 -108.4181 246° West 379 436 38,000 -180 Level Albuquerque Center
06:41PM 35.1978 -108.5506 245° Southwest 381 438 37,700 -540 Descending Albuquerque Center
06:42PM 35.1558 -108.6628 245° Southwest 380 437 37,000 -360 Descending Albuquerque Center
06:43PM 35.1067 -108.7936 245° Southwest 379 436 37,000  Level Albuquerque Center
06:44PM 35.0603 -108.9117 244° Southwest 393 452 37,000 -300 Level Albuquerque Center
06:46PM 35.0156 -109.0325 246° West 403 464 36,400 -540 Descending Albuquerque Center
06:47PM 34.9633 -109.1667 245° Southwest 395 455 36,000 -240 Descending Albuquerque Center
06:48PM 34.9200 -109.2850 246° West 397 457 36,000  Level Albuquerque Center
06:49PM 34.8778 -109.4025 246° West 396 456 36,000  Level Albuquerque Center
06:50PM 34.8247 -109.5367 244° Southwest 394 453 36,000  Level Albuquerque Center
06:51PM 34.7831 -109.6556 247° West 396 456 36,000  Level Albuquerque Center
06:52PM 34.7333 -109.7908 246° West 394 453 36,000  Level Albuquerque Center
06:53PM 34.6772 -109.8994 238° Southwest 395 455 36,000  Level Albuquerque Center
06:54PM 34.6217 -110.0075 238° Southwest 394 453 36,000  Level Albuquerque Center
06:55PM 34.5594 -110.1325 239° Southwest 389 448 36,000 -540 Level Albuquerque Center
06:56PM 34.5042 -110.2294 235° Southwest 374 430 35,000 -1,860 Descending Albuquerque Center
06:57PM 34.4431 -110.3489 238° Southwest 372 428 32,300 -2,280 Descending Albuquerque Center
06:58PM 34.3961 -110.4483 240° Southwest 386 444 30,400 -1,980 Descending Albuquerque Center
06:59PM 34.3403 -110.5553 238° Southwest 381 438 28,300 -2,040 Descending Albuquerque Center
07:00PM 34.2847 -110.6558 236° Southwest 365 420 26,300 -1,920 Descending Albuquerque Center
07:01PM 34.2278 -110.7553 235° Southwest 360 414 24,400 -2,100 Descending Albuquerque Center
07:02PM 34.1639 -110.8767 238° Southwest 358 412 22,000 -2,160 Descending Albuquerque Center
07:03PM 34.1108 -110.9756 237° Southwest 355 409 20,100 -1,860 Descending Albuquerque Center
07:04PM 34.0594 -111.0717 237° Southwest 345 397 18,200 -1,860 Descending Albuquerque Center
07:05PM 34.0100 -111.1650 237° Southwest 336 387 16,300 -1,860 Descending Albuquerque Center
07:06PM 33.9614 -111.2581 238° Southwest 329 379 14,500 -1,800 Descending Albuquerque Center
07:07PM 33.9103 -111.3506 236° Southwest 330 380 12,700 -1,560 Descending Albuquerque Center
07:08PM 33.8517 -111.4325 229° Southwest 323 372 11,400 -1,200 Descending Albuquerque Center
07:09PM 33.7806 -111.4911 214° Southwest 309 356 10,300 -1,080 Descending Albuquerque Center
07:10PM 33.7169 -111.5458 216° Southwest 283 326 9,300 -900 Descending Albuquerque Center
07:11PM 33.6553 -111.5994 216° Southwest 273 314 8,500 -840 Descending Albuquerque Center
07:12PM 33.6003 -111.6456 215° Southwest 245 282 7,600 -1,020 Descending Albuquerque Center
07:13PM 33.5450 -111.6919 215° Southwest 241 277 6,500 -1,140 Descending Albuquerque Center
07:14PM 33.4906 -111.7372 215° Southwest 239 275 5,300 -1,200 Descending Albuquerque Center
07:15PM 33.4569 -111.8128 242° Southwest 217 250 4,100 -1,140 Descending Albuquerque Center
07:16PM 33.4419 -111.8753 254° West 198 228 3,100 -900 Descending Albuquerque Center
07:17PM 33.4339 -111.9300 260° West 168 193 2,300 -840 Descending Albuquerque Center
07:18PM 33.4314 -111.9769 266° West 139 160 1,400 -600 Descending Albuquerque Center
07:19PM 33.4300 -112.0214 268° West 138 159 1,100 -300 Descending Albuquerque Center
07:21PM 33.4343 -112.0116 40° Northeast  Level Estimated